createdAt,value
2023-05-07T00:02:26.813Z,6.20
2023-05-07T00:04:53.917Z,6.37
2023-05-07T00:07:20.815Z,5.67
2023-05-07T00:09:47.562Z,5.90
2023-05-07T00:12:14.794Z,5.70
2023-05-07T00:14:41.861Z,6.37
2023-05-07T00:17:08.988Z,6.43
2023-05-07T00:19:35.765Z,6.73
2023-05-07T00:22:02.567Z,6.93
2023-05-07T00:24:29.465Z,6.80
2023-05-07T00:26:56.541Z,7.53
2023-05-07T00:29:23.466Z,7.43
2023-05-07T00:31:51.508Z,6.67
2023-05-07T00:34:18.302Z,6.03
2023-05-07T00:36:45.656Z,6.57
2023-05-07T00:39:12.522Z,6.33
2023-05-07T00:41:39.349Z,6.17
2023-05-07T00:44:06.261Z,5.67
2023-05-07T00:46:34.172Z,5.53
2023-05-07T00:49:01.878Z,6.53
2023-05-07T00:51:30.018Z,5.80
2023-05-07T00:53:56.901Z,6.03
2023-05-07T00:56:24.770Z,6.10
2023-05-07T00:58:51.809Z,5.70
2023-05-07T01:01:18.538Z,6.23
2023-05-07T01:03:46.185Z,6.20
2023-05-07T01:06:17.642Z,6.10
2023-05-07T01:08:46.279Z,6.93
2023-05-07T01:11:13.608Z,6.50
2023-05-07T01:13:41.433Z,6.00
2023-05-07T01:16:10.708Z,7.10
2023-05-07T01:18:37.950Z,6.40
2023-05-07T01:21:06.211Z,5.67
2023-05-07T01:23:34.767Z,5.73
2023-05-07T01:26:01.616Z,5.93
2023-05-07T01:28:30.357Z,5.80
2023-05-07T01:31:03.733Z,5.43
2023-05-07T01:33:36.112Z,5.93
2023-05-07T01:36:07.353Z,5.87
2023-05-07T01:38:35.607Z,6.23
2023-05-07T01:41:03.143Z,6.57
2023-05-07T01:43:31.844Z,6.37
2023-05-07T01:46:00.132Z,6.60
2023-05-07T01:48:27.581Z,5.90
2023-05-07T01:50:55.023Z,5.60
2023-05-07T01:53:21.760Z,5.33
2023-05-07T01:55:48.517Z,5.60
2023-05-07T01:58:16.319Z,5.37
2023-05-07T02:00:43.162Z,6.23
2023-05-07T02:03:10.376Z,6.10
2023-05-07T02:05:47.322Z,6.67
2023-05-07T02:08:31.167Z,5.90
2023-05-07T02:10:58.598Z,5.63
2023-05-07T02:13:28.168Z,5.93
2023-05-07T02:15:55.454Z,6.20
2023-05-07T02:18:24.395Z,6.07
2023-05-07T02:20:51.313Z,5.77
2023-05-07T02:23:18.200Z,5.90
2023-05-07T02:25:45.615Z,6.67
2023-05-07T02:28:12.972Z,6.37
2023-05-07T02:30:46.526Z,6.40
2023-05-07T02:33:15.051Z,6.23
2023-05-07T02:35:42.271Z,6.00
2023-05-07T02:38:11.755Z,6.07
2023-05-07T02:40:40.738Z,6.43
2023-05-07T02:43:07.696Z,5.93
2023-05-07T02:45:35.103Z,6.80
2023-05-07T02:48:03.267Z,6.10
2023-05-07T02:50:30.829Z,5.37
2023-05-07T02:52:57.810Z,5.50
2023-05-07T02:55:24.790Z,5.00
2023-05-07T02:57:51.659Z,5.10
2023-05-07T03:00:20.358Z,5.20
2023-05-07T03:02:58.469Z,4.80
2023-05-07T03:05:25.304Z,5.10
2023-05-07T03:07:52.254Z,5.33
2023-05-07T03:10:19.700Z,4.90
2023-05-07T03:12:46.518Z,5.20
2023-05-07T03:15:16.912Z,5.07
2023-05-07T03:17:43.787Z,5.23
2023-05-07T03:20:12.127Z,4.77
2023-05-07T03:22:40.817Z,4.97
2023-05-07T03:25:08.537Z,5.07
2023-05-07T03:27:35.708Z,4.97
2023-05-07T03:30:02.689Z,5.00
2023-05-07T03:32:29.596Z,5.03
2023-05-07T03:34:56.977Z,5.23
2023-05-07T03:37:24.429Z,5.10
2023-05-07T03:39:51.724Z,5.00
2023-05-07T03:42:19.112Z,4.93
2023-05-07T03:44:49.042Z,5.30
2023-05-07T03:47:15.789Z,5.13
2023-05-07T03:49:42.518Z,4.50
2023-05-07T03:52:09.479Z,4.20
2023-05-07T03:54:36.344Z,5.30
2023-05-07T03:57:03.367Z,5.00
2023-05-07T03:59:30.118Z,5.10
2023-05-07T04:01:57.791Z,5.40
2023-05-07T04:04:26.548Z,5.00
2023-05-07T04:06:54.393Z,5.13
2023-05-07T04:09:22.392Z,4.63
2023-05-07T04:11:49.110Z,4.73
2023-05-07T04:14:15.875Z,5.73
2023-05-07T04:16:42.745Z,6.00
2023-05-07T04:19:09.579Z,4.93
2023-05-07T04:21:39.567Z,5.47
2023-05-07T04:24:06.560Z,4.90
2023-05-07T04:26:33.820Z,4.57
2023-05-07T04:29:01.046Z,4.80
2023-05-07T04:31:33.109Z,4.63
2023-05-07T04:34:00.110Z,5.63
2023-05-07T04:36:28.715Z,4.50
2023-05-07T04:39:04.095Z,4.80
2023-05-07T04:41:31.521Z,4.50
2023-05-07T04:44:00.060Z,4.60
2023-05-07T04:46:29.853Z,5.27
2023-05-07T04:48:58.282Z,6.20
2023-05-07T04:51:25.075Z,5.87
2023-05-07T04:53:51.916Z,4.43
2023-05-07T04:56:18.763Z,5.07
2023-05-07T04:58:47.453Z,5.20
2023-05-07T05:01:16.146Z,4.67
2023-05-07T05:03:43.268Z,4.70
2023-05-07T05:06:11.096Z,4.57
2023-05-07T05:08:38.317Z,4.27
2023-05-07T05:11:05.509Z,4.37
2023-05-07T05:13:34.772Z,4.90
2023-05-07T05:16:07.947Z,4.70
2023-05-07T05:18:35.961Z,3.97
2023-05-07T05:21:02.781Z,4.13
2023-05-07T05:23:30.190Z,3.97
2023-05-07T05:26:01.166Z,4.40
2023-05-07T05:28:31.571Z,4.90
2023-05-07T05:30:58.416Z,4.10
2023-05-07T05:33:27.557Z,3.80
2023-05-07T05:35:57.058Z,3.80
2023-05-07T05:38:23.889Z,4.40
2023-05-07T05:40:51.206Z,4.43
2023-05-07T05:43:19.095Z,3.78
2023-05-07T05:45:45.861Z,4.10
2023-05-07T05:48:13.318Z,3.50
2023-05-07T05:50:40.808Z,4.03
2023-05-07T05:53:07.945Z,3.67
2023-05-07T05:55:35.415Z,3.60
2023-05-07T05:58:02.482Z,3.35
2023-05-07T06:00:31.180Z,3.28
2023-05-07T06:03:03.187Z,2.85
2023-05-07T06:05:30.129Z,2.45
2023-05-07T06:07:57.711Z,2.88
2023-05-07T06:10:25.623Z,2.90
2023-05-07T06:12:52.491Z,2.33
2023-05-07T06:15:19.612Z,2.50
2023-05-07T06:17:46.814Z,3.10
2023-05-07T06:20:14.041Z,2.60
2023-05-07T06:22:42.041Z,2.60
2023-05-07T06:25:11.725Z,2.40
2023-05-07T06:27:40.703Z,2.50
2023-05-07T06:30:08.715Z,2.42
2023-05-07T06:32:35.714Z,2.50
2023-05-07T06:35:02.464Z,2.45
2023-05-07T06:37:29.182Z,2.28
2023-05-07T06:40:00.655Z,2.55
2023-05-07T06:42:28.179Z,1.85
2023-05-07T06:44:59.258Z,2.15
2023-05-07T06:47:27.098Z,1.83
2023-05-07T06:49:55.881Z,2.17
2023-05-07T06:52:26.119Z,2.20
2023-05-07T06:54:54.432Z,1.85
2023-05-07T06:57:23.106Z,1.75
2023-05-07T06:59:50.297Z,2.30
2023-05-07T07:02:18.309Z,1.83
2023-05-07T07:04:46.786Z,2.50
2023-05-07T07:07:14.452Z,2.33
2023-05-07T07:09:43.687Z,1.98
2023-05-07T07:12:11.192Z,2.33
2023-05-07T07:14:40.374Z,2.15
2023-05-07T07:17:07.791Z,2.17
2023-05-07T07:19:35.198Z,2.40
2023-05-07T07:22:03.843Z,2.53
2023-05-07T07:24:30.728Z,2.40
2023-05-07T07:27:01.657Z,2.05
2023-05-07T07:29:29.248Z,2.05
2023-05-07T07:31:57.656Z,2.50
2023-05-07T07:34:25.281Z,2.30
2023-05-07T07:36:52.139Z,2.17
2023-05-07T07:39:20.346Z,1.92
2023-05-07T07:41:50.382Z,2.45
2023-05-07T07:44:19.067Z,2.25
2023-05-07T07:46:51.739Z,2.17
2023-05-07T07:49:20.197Z,2.20
2023-05-07T07:51:47.669Z,2.20
2023-05-07T07:54:14.765Z,2.15
2023-05-07T07:56:42.500Z,1.80
2023-05-07T07:59:10.820Z,2.03
2023-05-07T08:01:40.450Z,3.63
2023-05-07T08:04:08.672Z,2.25
2023-05-07T08:06:39.485Z,2.33
2023-05-07T08:09:07.177Z,2.60
2023-05-07T08:11:34.284Z,3.60
2023-05-07T08:14:01.823Z,1.90
2023-05-07T08:16:31.051Z,2.10
2023-05-07T08:18:59.715Z,2.20
2023-05-07T08:21:27.276Z,2.15
2023-05-07T08:23:54.838Z,3.22
2023-05-07T08:26:22.050Z,2.50
2023-05-07T08:28:49.515Z,2.33
2023-05-07T08:31:16.535Z,2.38
2023-05-07T08:33:45.702Z,2.00
2023-05-07T08:36:12.561Z,2.05
2023-05-07T08:38:42.141Z,1.92
2023-05-07T08:41:11.309Z,3.17
2023-05-07T08:43:42.613Z,2.28
2023-05-07T08:46:12.549Z,2.50
2023-05-07T08:48:43.466Z,3.88
2023-05-07T08:51:14.541Z,3.72
2023-05-07T08:53:42.714Z,2.60
2023-05-07T08:56:13.518Z,2.65
2023-05-07T08:58:41.007Z,2.10
2023-05-07T09:01:15.399Z,1.92
2023-05-07T09:03:47.901Z,2.38
2023-05-07T09:06:17.892Z,2.28
2023-05-07T09:08:54.752Z,3.35
2023-05-07T09:11:26.091Z,3.42
2023-05-07T09:13:57.550Z,2.20
2023-05-07T09:16:26.857Z,2.30
2023-05-07T09:18:56.149Z,2.30
2023-05-07T09:21:24.371Z,3.33
2023-05-07T09:23:56.418Z,2.70
2023-05-07T09:26:29.845Z,2.30
2023-05-07T09:28:56.691Z,2.67
2023-05-07T09:31:24.772Z,2.30
2023-05-07T09:33:54.454Z,2.33
2023-05-07T09:36:21.924Z,3.65
2023-05-07T09:38:52.477Z,2.40
2023-05-07T09:41:20.430Z,2.20
2023-05-07T09:44:02.725Z,2.17
2023-05-07T09:46:39.538Z,3.38
2023-05-07T09:49:24.603Z,2.45
2023-05-07T09:52:00.136Z,1.83
2023-05-07T09:54:28.450Z,2.85
2023-05-07T09:56:58.068Z,3.55
2023-05-07T09:59:29.942Z,2.97
2023-05-07T10:02:05.023Z,2.55
2023-05-07T10:04:38.716Z,2.10
2023-05-07T10:07:07.076Z,3.55
2023-05-07T10:09:39.707Z,2.10
2023-05-07T10:12:11.189Z,3.45
2023-05-07T10:14:38.498Z,1.80
2023-05-07T10:17:08.031Z,2.20
2023-05-07T10:19:35.898Z,1.73
2023-05-07T10:22:06.232Z,1.80
2023-05-07T10:24:39.040Z,1.75
2023-05-07T10:27:13.581Z,1.73
2023-05-07T10:29:50.686Z,2.60
2023-05-07T10:32:39.364Z,2.05
2023-05-07T10:35:15.283Z,2.50
2023-05-07T10:37:42.899Z,2.78
2023-05-07T10:40:11.820Z,1.70
2023-05-07T10:42:38.870Z,2.38
2023-05-07T10:45:15.790Z,3.13
2023-05-07T10:48:29.039Z,2.10
2023-05-07T10:51:21.630Z,2.97
2023-05-07T10:54:12.317Z,1.70
2023-05-07T10:56:45.529Z,3.25
2023-05-07T10:59:31.776Z,1.67
2023-05-07T11:02:07.581Z,1.75
2023-05-07T11:04:43.004Z,1.80
2023-05-07T11:07:31.170Z,1.75
2023-05-07T11:10:07.245Z,1.77
2023-05-07T11:12:57.322Z,1.30
2023-05-07T11:15:38.828Z,1.40
2023-05-07T11:18:14.668Z,1.52
2023-05-07T11:20:57.897Z,1.85
2023-05-07T11:23:35.170Z,1.45
2023-05-07T11:26:15.698Z,1.42
2023-05-07T11:28:44.786Z,1.20
2023-05-07T11:31:12.706Z,1.42
2023-05-07T11:33:41.389Z,1.38
2023-05-07T11:36:13.716Z,1.50
2023-05-07T11:38:46.068Z,1.20
2023-05-07T11:41:12.827Z,1.20
2023-05-07T11:43:54.104Z,1.30
2023-05-07T11:46:21.529Z,1.27
2023-05-07T11:48:48.688Z,1.42
2023-05-07T11:51:20.508Z,1.33
2023-05-07T11:53:47.284Z,1.42
2023-05-07T11:56:16.306Z,1.70
2023-05-07T11:58:44.522Z,1.50
2023-05-07T12:01:12.795Z,1.15
2023-05-07T12:03:44.954Z,1.23
2023-05-07T12:06:13.076Z,1.30
2023-05-07T12:08:42.112Z,1.45
2023-05-07T12:11:12.420Z,1.20
2023-05-07T12:13:39.328Z,1.10
2023-05-07T12:16:08.091Z,1.58
2023-05-07T12:18:38.338Z,1.75
2023-05-07T12:21:07.735Z,1.42
2023-05-07T12:23:36.796Z,1.52
2023-05-07T12:26:07.080Z,1.50
2023-05-07T12:28:39.726Z,1.40
2023-05-07T12:31:07.231Z,1.48
2023-05-07T12:33:35.360Z,1.10
2023-05-07T12:36:06.981Z,1.23
2023-05-07T12:38:38.425Z,1.58
2023-05-07T12:41:05.983Z,1.50
2023-05-07T12:43:32.794Z,1.35
2023-05-07T12:46:02.829Z,1.50
2023-05-07T12:48:29.843Z,1.50
2023-05-07T12:50:58.330Z,1.92
2023-05-07T12:53:27.314Z,1.77
2023-05-07T12:55:56.715Z,1.80
2023-05-07T12:58:28.282Z,1.70
2023-05-07T13:01:00.377Z,2.00
2023-05-07T13:03:33.357Z,1.73
2023-05-07T13:06:03.631Z,1.60
2023-05-07T13:08:35.158Z,1.90
2023-05-07T13:11:06.138Z,1.92
2023-05-07T13:13:34.197Z,1.80
2023-05-07T13:16:03.020Z,1.90
2023-05-07T13:18:33.997Z,1.77
2023-05-07T13:21:01.972Z,2.00
2023-05-07T13:23:29.810Z,2.10
2023-05-07T13:25:57.649Z,2.30
2023-05-07T13:28:25.394Z,1.70
2023-05-07T13:30:55.700Z,2.33
2023-05-07T13:33:22.772Z,2.33
2023-05-07T13:35:49.627Z,2.80
2023-05-07T13:38:17.269Z,2.47
2023-05-07T13:40:44.092Z,2.50
2023-05-07T13:43:11.846Z,2.38
2023-05-07T13:45:38.965Z,2.08
2023-05-07T13:48:06.035Z,2.35
2023-05-07T13:50:33.096Z,2.42
2023-05-07T13:53:00.122Z,2.17
2023-05-07T13:55:27.146Z,2.25
2023-05-07T13:58:02.193Z,2.63
2023-05-07T14:00:30.338Z,2.33
2023-05-07T14:02:58.973Z,2.28
2023-05-07T14:05:26.077Z,2.22
2023-05-07T14:07:53.163Z,2.20
2023-05-07T14:10:20.950Z,2.20
2023-05-07T14:12:48.690Z,2.13
2023-05-07T14:15:17.286Z,2.05
2023-05-07T14:17:45.127Z,2.40
2023-05-07T14:20:13.950Z,2.40
2023-05-07T14:22:41.048Z,2.50
2023-05-07T14:25:08.465Z,2.58
2023-05-07T14:27:35.201Z,2.17
2023-05-07T14:30:01.982Z,2.45
2023-05-07T14:32:29.052Z,2.35
2023-05-07T14:34:55.844Z,2.33
2023-05-07T14:37:22.550Z,2.28
2023-05-07T14:39:51.020Z,2.42
2023-05-07T14:42:18.892Z,2.63
2023-05-07T14:44:48.854Z,2.35
2023-05-07T14:47:17.578Z,2.70
2023-05-07T14:49:45.912Z,2.47
2023-05-07T14:52:13.404Z,2.53
2023-05-07T14:54:40.173Z,2.15
2023-05-07T14:57:07.934Z,2.40
2023-05-07T14:59:35.185Z,2.30
2023-05-07T15:02:04.665Z,2.25
2023-05-07T15:04:33.954Z,2.40
2023-05-07T15:07:01.010Z,2.85
2023-05-07T15:09:27.816Z,3.85
2023-05-07T15:11:54.812Z,2.58
2023-05-07T15:14:23.118Z,3.00
2023-05-07T15:16:50.880Z,2.58
2023-05-07T15:19:18.111Z,2.42
2023-05-07T15:21:45.055Z,3.45
2023-05-07T15:24:11.820Z,2.60
2023-05-07T15:26:38.656Z,3.58
2023-05-07T15:29:11.116Z,2.78
2023-05-07T15:31:40.112Z,3.03
2023-05-07T15:34:07.393Z,4.15
2023-05-07T15:36:34.794Z,2.30
2023-05-07T15:39:05.657Z,2.63
2023-05-07T15:41:33.142Z,1.90
2023-05-07T15:44:00.434Z,2.33
2023-05-07T15:46:28.223Z,3.72
2023-05-07T15:48:55.860Z,3.30
2023-05-07T15:51:23.709Z,2.60
2023-05-07T15:53:52.070Z,5.57
2023-05-07T15:56:19.085Z,2.92
2023-05-07T15:58:46.517Z,2.83
2023-05-07T16:01:13.316Z,2.67
2023-05-07T16:03:41.258Z,2.10
2023-05-07T16:06:12.351Z,2.20
2023-05-07T16:08:40.465Z,2.05
2023-05-07T16:11:07.305Z,2.22
2023-05-07T16:13:35.455Z,1.48
2023-05-07T16:16:02.460Z,1.50
2023-05-07T16:18:29.596Z,1.23
2023-05-07T16:20:56.499Z,1.42
2023-05-07T16:23:23.383Z,1.40
2023-05-07T16:25:50.123Z,0.93
2023-05-07T16:28:16.959Z,1.33
2023-05-07T16:30:44.074Z,1.27
2023-05-07T16:33:11.112Z,1.35
2023-05-07T16:35:37.879Z,1.13
2023-05-07T16:38:10.084Z,1.30
2023-05-07T16:40:40.699Z,1.00
2023-05-07T16:43:07.787Z,1.38
2023-05-07T16:45:34.754Z,1.00
2023-05-07T16:48:03.293Z,1.63
2023-05-07T16:50:30.492Z,1.40
2023-05-07T16:52:57.210Z,1.35
2023-05-07T16:55:24.093Z,1.25
2023-05-07T16:57:51.007Z,2.40
2023-05-07T17:00:18.198Z,2.20
2023-05-07T17:02:47.389Z,1.73
2023-05-07T17:05:14.672Z,2.15
2023-05-07T17:07:41.855Z,1.83
2023-05-07T17:10:08.990Z,2.80
2023-05-07T17:12:36.047Z,1.88
2023-05-07T17:15:04.037Z,2.22
2023-05-07T17:17:30.811Z,2.70
2023-05-07T17:19:59.089Z,3.00
2023-05-07T17:22:26.627Z,2.50
2023-05-07T17:24:53.364Z,2.58
2023-05-07T17:27:20.993Z,2.25
2023-05-07T17:29:47.720Z,1.83
2023-05-07T17:32:14.898Z,1.90
2023-05-07T17:34:41.763Z,2.42
2023-05-07T17:37:08.687Z,2.20
2023-05-07T17:39:35.723Z,2.22
2023-05-07T17:42:02.680Z,2.40
2023-05-07T17:44:29.485Z,1.98
2023-05-07T17:46:57.036Z,1.55
2023-05-07T17:49:24.008Z,2.08
2023-05-07T17:51:54.878Z,1.90
2023-05-07T17:54:24.320Z,2.40
2023-05-07T17:56:51.241Z,2.55
2023-05-07T17:59:18.242Z,1.90
2023-05-07T18:01:45.698Z,1.95
2023-05-07T18:04:12.476Z,2.42
2023-05-07T18:06:40.005Z,2.42
2023-05-07T18:09:07.168Z,2.58
2023-05-07T18:11:34.159Z,2.70
2023-05-07T18:14:01.266Z,2.67
2023-05-07T18:16:28.160Z,2.67
2023-05-07T18:18:55.765Z,2.60
2023-05-07T18:21:22.506Z,2.50
2023-05-07T18:23:49.875Z,2.53
2023-05-07T18:26:20.192Z,2.38
2023-05-07T18:28:50.244Z,2.30
2023-05-07T18:31:21.172Z,2.53
2023-05-07T18:33:53.195Z,2.17
2023-05-07T18:36:20.242Z,2.25
2023-05-07T18:38:47.020Z,2.40
2023-05-07T18:41:13.829Z,2.53
2023-05-07T18:43:40.693Z,4.13
2023-05-07T18:46:07.490Z,3.33
2023-05-07T18:48:34.416Z,3.20
2023-05-07T18:51:01.491Z,3.20
2023-05-07T18:53:29.078Z,2.92
2023-05-07T18:55:55.847Z,2.78
2023-05-07T18:58:22.667Z,2.88
2023-05-07T19:00:50.062Z,2.63
2023-05-07T19:03:17.274Z,2.95
2023-05-07T19:05:45.269Z,3.05
2023-05-07T19:08:12.291Z,3.33
2023-05-07T19:10:39.251Z,3.35
2023-05-07T19:13:06.782Z,3.47
2023-05-07T19:15:33.786Z,2.72
2023-05-07T19:18:00.948Z,3.25
2023-05-07T19:20:29.162Z,3.25
2023-05-07T19:22:56.654Z,3.95
2023-05-07T19:25:23.807Z,3.65
2023-05-07T19:27:51.535Z,3.15
2023-05-07T19:30:19.049Z,3.10
2023-05-07T19:32:46.799Z,2.85
2023-05-07T19:35:13.852Z,2.92
2023-05-07T19:37:41.134Z,2.65
2023-05-07T19:40:09.489Z,2.58
2023-05-07T19:42:36.669Z,2.60
2023-05-07T19:45:04.906Z,2.50
2023-05-07T19:47:32.592Z,2.50
2023-05-07T19:49:59.498Z,2.53
2023-05-07T19:52:26.822Z,2.78
2023-05-07T19:54:53.594Z,2.38
2023-05-07T19:57:20.594Z,2.85
2023-05-07T19:59:47.681Z,2.53
2023-05-07T20:02:16.086Z,2.50
2023-05-07T20:04:43.053Z,2.58
2023-05-07T20:07:09.870Z,2.60
2023-05-07T20:09:36.968Z,2.67
2023-05-07T20:12:04.183Z,3.42
2023-05-07T20:14:31.719Z,2.92
2023-05-07T20:16:58.714Z,3.00
2023-05-07T20:19:26.051Z,2.83
2023-05-07T20:21:53.719Z,2.78
2023-05-07T20:24:20.832Z,3.13
2023-05-07T20:26:47.713Z,3.20
2023-05-07T20:29:14.434Z,3.20
2023-05-07T20:31:41.762Z,2.67
2023-05-07T20:34:12.078Z,3.05
2023-05-07T20:36:38.966Z,2.55
2023-05-07T20:39:06.008Z,2.78
2023-05-07T20:41:32.881Z,2.83
2023-05-07T20:44:00.445Z,3.22
2023-05-07T20:46:28.161Z,3.35
2023-05-07T20:48:55.146Z,3.10
2023-05-07T20:51:22.016Z,3.58
2023-05-07T20:53:48.853Z,3.67
2023-05-07T20:56:16.497Z,3.90
2023-05-07T20:58:43.473Z,4.50
2023-05-07T21:01:10.432Z,4.20
2023-05-07T21:03:37.527Z,4.63
2023-05-07T21:06:04.715Z,4.47
2023-05-07T21:08:31.854Z,4.63
2023-05-07T21:10:59.271Z,4.40
2023-05-07T21:13:26.502Z,5.10
2023-05-07T21:15:53.765Z,5.40
2023-05-07T21:18:20.941Z,5.00
2023-05-07T21:20:48.192Z,5.10
2023-05-07T21:23:15.119Z,5.15
2023-05-07T21:25:42.473Z,4.85
2023-05-07T21:28:09.346Z,4.95
2023-05-07T21:30:37.193Z,5.40
2023-05-07T21:33:06.236Z,5.28
2023-05-07T21:35:36.100Z,5.28
2023-05-07T21:38:03.514Z,5.35
2023-05-07T21:40:30.224Z,5.78
2023-05-07T21:42:58.437Z,5.80
2023-05-07T21:45:25.388Z,5.30
2023-05-07T21:47:52.211Z,5.28
2023-05-07T21:50:19.392Z,6.20
2023-05-07T21:52:46.872Z,5.88
2023-05-07T21:55:14.175Z,5.53
2023-05-07T21:57:45.541Z,4.45
2023-05-07T22:00:16.513Z,4.03
2023-05-07T22:02:43.873Z,4.32
2023-05-07T22:05:10.756Z,4.28
2023-05-07T22:07:37.530Z,4.30
2023-05-07T22:10:04.611Z,4.57
2023-05-07T22:12:32.133Z,5.05
2023-05-07T22:14:59.108Z,5.18
2023-05-07T22:17:26.037Z,5.13
2023-05-07T22:19:53.275Z,6.38
2023-05-07T22:22:20.246Z,5.30
2023-05-07T22:24:47.288Z,5.38
2023-05-07T22:27:14.683Z,4.97
2023-05-07T22:29:41.405Z,5.57
2023-05-07T22:32:10.576Z,5.53
2023-05-07T22:34:39.622Z,4.80
2023-05-07T22:37:06.491Z,5.30
2023-05-07T22:39:35.354Z,5.43
2023-05-07T22:42:02.478Z,5.85
2023-05-07T22:44:29.458Z,5.40
2023-05-07T22:46:56.189Z,5.50
2023-05-07T22:49:22.880Z,5.90
2023-05-07T22:51:49.744Z,5.70
2023-05-07T22:54:16.532Z,6.13
2023-05-07T22:56:43.321Z,5.95
2023-05-07T22:59:10.033Z,5.30
2023-05-07T23:01:37.184Z,5.45
2023-05-07T23:04:04.265Z,5.57
2023-05-07T23:06:31.250Z,6.13
2023-05-07T23:08:58.937Z,6.70
2023-05-07T23:11:26.427Z,5.97
2023-05-07T23:13:53.250Z,5.67
2023-05-07T23:16:20.035Z,5.53
2023-05-07T23:18:47.917Z,5.78
2023-05-07T23:21:14.712Z,5.70
2023-05-07T23:23:41.449Z,6.33
2023-05-07T23:26:08.207Z,5.93
2023-05-07T23:28:34.920Z,5.63
2023-05-07T23:31:01.650Z,6.25
2023-05-07T23:33:28.573Z,5.97
2023-05-07T23:35:59.942Z,6.18
2023-05-07T23:38:26.686Z,6.30
2023-05-07T23:40:54.465Z,7.10
2023-05-07T23:43:22.196Z,6.32
2023-05-07T23:45:49.628Z,6.30
2023-05-07T23:48:16.511Z,6.55
2023-05-07T23:50:43.588Z,6.37
2023-05-07T23:53:10.508Z,5.53
2023-05-07T23:55:37.710Z,6.88
2023-05-07T23:58:04.620Z,6.63
